createdAt,value
2019-01-26T00:02:33.764Z,0.70
2019-01-26T00:05:21.672Z,0.80
2019-01-26T00:07:50.294Z,0.80
2019-01-26T00:10:38.304Z,0.80
2019-01-26T00:13:06.931Z,0.80
2019-01-26T00:15:35.691Z,0.70
2019-01-26T00:18:23.779Z,0.80
2019-01-26T00:21:07.796Z,0.70
2019-01-26T00:23:55.777Z,0.60
2019-01-26T00:26:37.571Z,0.60
2019-01-26T00:29:25.622Z,0.70
2019-01-26T00:32:10.848Z,0.60
2019-01-26T00:34:39.472Z,0.70
2019-01-26T00:37:27.482Z,0.70
2019-01-26T00:39:56.123Z,0.60
2019-01-26T00:42:24.856Z,0.60
2019-01-26T00:44:53.497Z,0.60
2019-01-26T00:47:41.411Z,0.60
2019-01-26T00:50:30.919Z,0.60
2019-01-26T00:52:59.680Z,0.60
2019-01-26T00:55:28.362Z,0.60
2019-01-26T00:57:57.153Z,0.70
2019-01-26T01:00:25.909Z,0.80
2019-01-26T01:03:13.895Z,0.80
2019-01-26T01:05:43.549Z,0.70
2019-01-26T01:08:12.238Z,0.70
2019-01-26T01:10:40.995Z,0.70
2019-01-26T01:13:22.324Z,0.70
2019-01-26T01:16:10.350Z,0.70
2019-01-26T01:18:52.124Z,0.90
2019-01-26T01:21:40.184Z,0.80
2019-01-26T01:24:21.235Z,0.70
2019-01-26T01:27:09.270Z,0.70
2019-01-26T01:29:50.679Z,0.80
2019-01-26T01:32:38.711Z,0.80
2019-01-26T01:35:20.650Z,0.80
2019-01-26T01:37:49.315Z,0.80
2019-01-26T01:40:18.376Z,0.80
2019-01-26T01:42:47.103Z,0.70
2019-01-26T01:45:35.113Z,0.80
2019-01-26T01:48:16.253Z,0.80
2019-01-26T01:50:44.937Z,0.90
2019-01-26T01:53:13.534Z,0.90
2019-01-26T01:55:42.234Z,0.90
2019-01-26T01:58:11.004Z,0.80
2019-01-26T02:00:39.772Z,0.80
2019-01-26T02:03:27.731Z,0.80
2019-01-26T02:06:09.855Z,0.80
2019-01-26T02:08:57.786Z,0.70
2019-01-26T02:11:39.827Z,0.70
2019-01-26T02:14:21.107Z,0.80
2019-01-26T02:17:09.372Z,0.80
2019-01-26T02:19:51.038Z,0.70
2019-01-26T02:22:39.312Z,0.70
2019-01-26T02:25:21.484Z,0.80
2019-01-26T02:28:28.978Z,0.80
2019-01-26T02:31:13.596Z,0.70
2019-01-26T02:34:01.897Z,0.70
2019-01-26T02:36:50.031Z,0.60
2019-01-26T02:39:38.337Z,0.70
2019-01-26T02:42:19.946Z,0.70
2019-01-26T02:45:27.467Z,0.80
2019-01-26T02:48:09.125Z,0.80
2019-01-26T02:50:57.382Z,0.80
2019-01-26T02:53:39.678Z,0.90
2019-01-26T02:56:27.974Z,0.90
2019-01-26T02:59:12.259Z,0.90
2019-01-26T03:02:03.250Z,0.90
2019-01-26T03:04:44.584Z,1.00
2019-01-26T03:07:32.776Z,1.00
2019-01-26T03:10:16.319Z,1.00
2019-01-26T03:13:04.811Z,1.10
2019-01-26T03:15:47.100Z,1.10
2019-01-26T03:18:35.522Z,1.10
2019-01-26T03:21:17.827Z,1.10
2019-01-26T03:24:05.839Z,1.10
2019-01-26T03:26:49.398Z,1.10
2019-01-26T03:29:38.298Z,1.10
2019-01-26T03:32:20.897Z,1.10
2019-01-26T03:35:09.206Z,1.10
2019-01-26T03:37:52.095Z,1.20
2019-01-26T03:40:41.718Z,1.20
2019-01-26T03:43:24.885Z,1.10
2019-01-26T03:46:15.137Z,1.10
2019-01-26T03:48:58.607Z,1.20
2019-01-26T03:51:27.381Z,1.30
2019-01-26T03:54:15.583Z,1.30
2019-01-26T03:56:57.292Z,1.40
2019-01-26T03:59:45.637Z,1.40
2019-01-26T04:02:27.568Z,1.30
2019-01-26T04:05:15.941Z,1.40
2019-01-26T04:08:04.176Z,1.40
2019-01-26T04:10:52.674Z,1.40
2019-01-26T04:13:34.404Z,1.40
2019-01-26T04:16:22.538Z,1.40
2019-01-26T04:19:10.711Z,1.50
2019-01-26T04:21:58.817Z,1.40
2019-01-26T04:24:47.059Z,1.60
2019-01-26T04:27:35.198Z,1.60
2019-01-26T04:30:18.196Z,1.50
2019-01-26T04:33:06.279Z,1.70
2019-01-26T04:35:48.359Z,1.80
2019-01-26T04:38:30.100Z,1.70
2019-01-26T04:41:18.185Z,1.80
2019-01-26T04:43:59.815Z,1.80
2019-01-26T04:46:48.781Z,1.80
2019-01-26T04:49:31.499Z,1.80
2019-01-26T04:52:19.893Z,1.80
2019-01-26T04:55:02.893Z,1.80
2019-01-26T04:57:51.789Z,1.90
2019-01-26T05:00:34.175Z,1.90
2019-01-26T05:03:22.519Z,1.90
2019-01-26T05:06:04.444Z,1.90
2019-01-26T05:11:53.553Z,2.00
2019-01-26T05:14:35.804Z,2.00
2019-01-26T05:17:17.337Z,2.00
2019-01-26T05:20:07.035Z,2.10
2019-01-26T05:22:48.758Z,2.00
2019-01-26T05:25:36.795Z,2.10
2019-01-26T05:28:18.545Z,2.10
2019-01-26T05:31:06.592Z,2.20
2019-01-26T05:33:49.148Z,2.20
2019-01-26T05:36:37.209Z,2.20
2019-01-26T05:39:20.062Z,2.30
2019-01-26T05:41:48.667Z,2.30
2019-01-26T05:44:36.653Z,2.40
2019-01-26T05:47:18.280Z,2.40
2019-01-26T05:50:07.798Z,2.50
2019-01-26T05:52:49.098Z,2.50
2019-01-26T05:55:37.170Z,2.50
2019-01-26T05:58:19.150Z,2.60
2019-01-26T06:01:01.006Z,2.60
2019-01-26T06:03:49.005Z,2.60
2019-01-26T06:06:30.136Z,2.60
2019-01-26T06:09:18.249Z,2.70
2019-01-26T06:12:00.325Z,2.60
2019-01-26T06:14:48.325Z,2.70
2019-01-26T06:17:30.016Z,2.70
2019-01-26T06:20:18.044Z,2.90
2019-01-26T06:23:06.028Z,2.80
2019-01-26T06:25:48.232Z,2.70
2019-01-26T06:28:36.190Z,2.80
2019-01-26T06:31:18.149Z,2.80
2019-01-26T06:34:06.229Z,2.80
2019-01-26T06:36:47.641Z,2.90
2019-01-26T06:39:35.612Z,3.00
2019-01-26T06:42:17.559Z,3.00
2019-01-26T06:45:26.299Z,3.00
2019-01-26T06:48:08.029Z,3.00
2019-01-26T06:50:56.060Z,3.00
2019-01-26T06:53:44.118Z,3.00
2019-01-26T06:56:25.876Z,3.10
2019-01-26T06:59:13.803Z,3.10
2019-01-26T07:01:55.435Z,3.00
2019-01-26T07:07:39.619Z,3.10
2019-01-26T07:10:27.617Z,3.20
2019-01-26T07:13:09.825Z,3.20
2019-01-26T07:18:59.461Z,3.20
2019-01-26T07:21:47.475Z,3.10
2019-01-26T07:24:32.261Z,3.10
2019-01-26T07:30:19.909Z,3.20
2019-01-26T07:33:07.953Z,3.20
2019-01-26T07:35:50.068Z,3.30
2019-01-26T07:38:18.676Z,3.40
2019-01-26T07:41:06.733Z,3.40
2019-01-26T07:43:35.316Z,3.30
2019-01-26T07:46:23.535Z,3.40
2019-01-26T07:48:52.233Z,3.40
2019-01-26T07:51:42.649Z,3.50
2019-01-26T07:54:24.109Z,3.50
2019-01-26T07:57:13.612Z,3.60
2019-01-26T07:59:55.542Z,3.60
2019-01-26T08:02:43.612Z,3.60
2019-01-26T08:05:33.064Z,3.60
2019-01-26T08:08:15.157Z,3.70
2019-01-26T08:11:03.155Z,3.60
2019-01-26T08:13:45.144Z,3.60
2019-01-26T08:16:26.489Z,3.70
2019-01-26T08:19:14.642Z,3.80
2019-01-26T08:21:56.127Z,3.80
2019-01-26T08:24:44.704Z,3.90
2019-01-26T08:27:27.185Z,3.80
2019-01-26T08:29:55.909Z,3.90
2019-01-26T08:32:44.021Z,4.00
2019-01-26T08:35:32.080Z,4.00
2019-01-26T08:38:15.650Z,4.00
2019-01-26T08:41:03.653Z,4.10
2019-01-26T08:43:45.590Z,4.00
2019-01-26T08:46:33.576Z,4.00
2019-01-26T08:49:15.607Z,4.10
2019-01-26T08:52:03.817Z,4.20
2019-01-26T08:54:45.252Z,4.20
2019-01-26T08:57:33.313Z,4.20
2019-01-26T09:00:19.654Z,4.20
2019-01-26T09:09:08.207Z,4.30
2019-01-26T09:11:56.194Z,4.40
2019-01-26T09:14:38.092Z,4.40
2019-01-26T09:17:20.017Z,4.30
2019-01-26T09:20:28.838Z,4.40
2019-01-26T09:25:52.004Z,4.40
2019-01-26T09:28:39.937Z,4.50
2019-01-26T09:31:21.092Z,4.50
2019-01-26T09:34:09.092Z,4.50
2019-01-26T09:36:51.053Z,4.50
2019-01-26T09:39:39.054Z,4.60
2019-01-26T09:42:25.117Z,4.50
2019-01-26T09:45:27.581Z,4.60
2019-01-26T09:48:09.764Z,4.60
2019-01-26T09:50:51.768Z,4.70
2019-01-26T09:53:39.790Z,4.70
2019-01-26T09:56:21.863Z,4.70
2019-01-26T09:58:50.576Z,4.80
2019-01-26T10:01:38.546Z,4.80
2019-01-26T10:04:20.425Z,4.80
2019-01-26T10:07:08.478Z,4.80
2019-01-26T10:09:50.432Z,4.80
2019-01-26T10:12:38.569Z,5.00
2019-01-26T10:15:22.122Z,5.00
2019-01-26T10:18:04.848Z,5.10
2019-01-26T10:20:52.875Z,5.20
2019-01-26T10:23:34.858Z,5.20
2019-01-26T10:26:22.834Z,5.20
2019-01-26T10:29:04.952Z,5.30
2019-01-26T10:31:53.049Z,5.30
2019-01-26T10:34:35.104Z,5.30
2019-01-26T10:40:44.787Z,5.30
2019-01-26T10:43:52.038Z,5.30
2019-01-26T10:46:59.612Z,5.30
2019-01-26T10:49:41.516Z,5.30
2019-01-26T10:52:29.500Z,5.40
2019-01-26T10:55:11.822Z,5.30
2019-01-26T10:57:59.917Z,5.30
2019-01-26T11:00:41.531Z,5.30
2019-01-26T11:06:32.326Z,5.40
2019-01-26T11:09:20.373Z,5.30
2019-01-26T11:12:03.223Z,5.40
2019-01-26T11:14:51.235Z,5.50
2019-01-26T11:17:33.355Z,5.50
2019-01-26T11:20:21.395Z,5.50
2019-01-26T11:23:03.277Z,5.50
2019-01-26T11:25:32.519Z,5.60
2019-01-26T11:28:01.260Z,5.60
2019-01-26T11:30:49.491Z,5.70
2019-01-26T11:33:18.265Z,5.70
2019-01-26T11:35:47.113Z,5.80
2019-01-26T11:38:35.198Z,5.80
2019-01-26T11:41:16.741Z,5.90
2019-01-26T11:44:04.770Z,5.90
2019-01-26T11:46:33.456Z,5.80
2019-01-26T11:49:02.126Z,6.00
2019-01-26T11:51:51.762Z,6.00
2019-01-26T11:54:34.016Z,6.20
2019-01-26T11:57:22.092Z,6.20
2019-01-26T12:00:24.721Z,6.20
2019-01-26T12:03:31.992Z,6.20
2019-01-26T12:06:17.588Z,6.30
2019-01-26T12:08:46.445Z,6.30
2019-01-26T12:11:34.517Z,6.30
2019-01-26T12:14:22.650Z,6.40
2019-01-26T12:17:04.172Z,6.40
2019-01-26T12:19:52.159Z,6.40
2019-01-26T12:22:34.685Z,6.40
2019-01-26T12:25:16.854Z,6.40
2019-01-26T12:28:04.869Z,6.20
2019-01-26T12:30:46.817Z,6.30
2019-01-26T12:33:34.881Z,6.20
2019-01-26T12:36:16.940Z,6.30
2019-01-26T12:39:25.668Z,6.30
2019-01-26T12:42:07.745Z,6.20
2019-01-26T12:44:55.708Z,6.20
2019-01-26T12:47:37.494Z,6.20
2019-01-26T12:50:25.706Z,6.30
2019-01-26T12:53:11.285Z,6.10
2019-01-26T12:55:53.468Z,6.30
2019-01-26T12:58:41.468Z,6.30
2019-01-26T13:01:23.259Z,6.30
2019-01-26T13:04:11.272Z,6.30
2019-01-26T13:06:53.032Z,6.30
2019-01-26T13:09:54.824Z,6.40
2019-01-26T13:12:23.897Z,6.30
2019-01-26T13:15:15.358Z,6.30
2019-01-26T13:17:56.125Z,6.40
2019-01-26T13:20:37.373Z,6.40
2019-01-26T13:23:25.401Z,6.40
2019-01-26T13:26:08.526Z,6.40
2019-01-26T13:28:50.377Z,6.40
2019-01-26T13:31:38.392Z,6.40
2019-01-26T13:34:20.020Z,6.50
2019-01-26T13:37:08.083Z,6.50
2019-01-26T13:39:51.025Z,6.50
2019-01-26T13:42:39.038Z,6.50
2019-01-26T13:45:20.189Z,6.50
2019-01-26T13:48:08.184Z,6.50
2019-01-26T13:50:50.405Z,6.50
2019-01-26T13:53:19.142Z,6.50
2019-01-26T13:55:47.731Z,6.50
2019-01-26T13:58:16.500Z,6.50
2019-01-26T14:00:45.279Z,6.50
2019-01-26T14:03:33.308Z,6.50
2019-01-26T14:06:01.963Z,6.50
2019-01-26T14:08:30.707Z,6.50
2019-01-26T14:10:59.370Z,6.50
2019-01-26T14:13:27.984Z,6.50
2019-01-26T14:19:20.030Z,6.40
2019-01-26T14:22:01.973Z,6.30
2019-01-26T14:24:50.049Z,6.30
2019-01-26T14:27:38.154Z,6.20
2019-01-26T14:30:23.832Z,6.20
2019-01-26T14:33:11.805Z,6.20
2019-01-26T14:35:53.811Z,6.20
2019-01-26T14:38:41.849Z,6.20
2019-01-26T14:41:23.804Z,6.30
2019-01-26T14:44:11.808Z,6.30
2019-01-26T14:46:53.646Z,6.30
2019-01-26T14:49:41.642Z,6.40
2019-01-26T14:52:23.409Z,6.30
2019-01-26T14:55:32.146Z,6.30
2019-01-26T14:58:14.256Z,6.30
2019-01-26T15:00:42.971Z,6.30
2019-01-26T15:03:31.077Z,6.20
2019-01-26T15:06:13.123Z,6.20
2019-01-26T15:08:55.969Z,6.20
2019-01-26T15:11:44.013Z,6.20
2019-01-26T15:14:25.882Z,6.30
2019-01-26T15:17:13.834Z,6.30
2019-01-26T15:19:55.108Z,6.30
2019-01-26T15:22:43.038Z,6.20
2019-01-26T15:25:24.978Z,6.30
2019-01-26T15:28:12.946Z,6.30
2019-01-26T15:31:01.007Z,6.30
2019-01-26T15:33:42.225Z,6.30
2019-01-26T15:36:30.267Z,6.20
2019-01-26T15:39:11.795Z,6.20
2019-01-26T15:41:59.904Z,6.20
2019-01-26T15:44:41.568Z,6.20
2019-01-26T15:47:29.634Z,6.10
2019-01-26T15:50:13.224Z,6.10
2019-01-26T15:53:01.459Z,6.10
2019-01-26T15:55:43.380Z,6.10
2019-01-26T15:58:31.351Z,5.80
2019-01-26T16:01:13.385Z,5.90
2019-01-26T16:04:01.421Z,6.00
2019-01-26T16:06:43.393Z,5.90
2019-01-26T16:09:31.442Z,6.00
2019-01-26T16:12:12.687Z,6.00
2019-01-26T16:15:00.637Z,6.00
2019-01-26T16:17:42.207Z,6.00
2019-01-26T16:20:24.043Z,5.90
2019-01-26T16:23:09.668Z,5.90
2019-01-26T16:25:55.830Z,6.00
2019-01-26T16:28:37.379Z,5.90
2019-01-26T16:31:06.144Z,6.00
2019-01-26T16:33:54.093Z,5.90
2019-01-26T16:36:42.070Z,5.90
2019-01-26T16:39:24.071Z,5.80
2019-01-26T16:42:12.059Z,5.90
2019-01-26T16:45:00.197Z,5.90
2019-01-26T16:47:42.144Z,5.80
2019-01-26T16:50:30.785Z,5.90
2019-01-26T16:53:12.466Z,5.90
2019-01-26T16:55:41.242Z,5.90
2019-01-26T16:58:29.312Z,5.90
2019-01-26T17:01:10.533Z,6.00
2019-01-26T17:03:39.317Z,5.90
2019-01-26T17:06:27.288Z,6.00
2019-01-26T17:09:08.937Z,6.00
2019-01-26T17:11:56.986Z,5.90
2019-01-26T17:14:44.972Z,6.00
2019-01-26T17:17:33.043Z,6.00
2019-01-26T17:20:16.547Z,5.90
2019-01-26T17:23:04.707Z,6.00
2019-01-26T17:25:46.486Z,6.00
2019-01-26T17:28:34.533Z,6.00
2019-01-26T17:31:03.318Z,5.90
2019-01-26T17:33:51.379Z,6.10
2019-01-26T17:36:39.367Z,6.00
2019-01-26T17:39:22.369Z,5.90
2019-01-26T17:42:04.233Z,6.00
2019-01-26T17:44:52.446Z,6.10
2019-01-26T17:47:34.331Z,6.00
2019-01-26T17:50:42.076Z,6.00
2019-01-26T17:53:19.237Z,6.00
2019-01-26T17:56:07.180Z,6.00
2019-01-26T17:58:55.242Z,6.10
2019-01-26T18:01:37.216Z,6.10
2019-01-26T18:04:25.272Z,6.10
2019-01-26T18:07:07.426Z,6.10
2019-01-26T18:09:49.248Z,6.10
2019-01-26T18:12:37.175Z,6.10
2019-01-26T18:15:19.428Z,6.10
2019-01-26T18:18:07.501Z,6.10
2019-01-26T18:20:49.615Z,6.10
2019-01-26T18:23:37.841Z,6.00
2019-01-26T18:26:25.843Z,6.10
2019-01-26T18:29:07.618Z,6.10
2019-01-26T18:31:55.597Z,6.10
2019-01-26T18:34:37.530Z,6.00
2019-01-26T18:37:25.569Z,6.00
2019-01-26T18:40:08.595Z,5.90
2019-01-26T18:42:56.844Z,5.90
2019-01-26T18:45:38.868Z,5.80
2019-01-26T18:48:26.819Z,5.80
2019-01-26T18:51:08.415Z,5.70
2019-01-26T18:53:56.405Z,5.80
2019-01-26T18:56:37.528Z,5.90
2019-01-26T18:59:25.545Z,5.80
2019-01-26T19:02:06.998Z,5.80
2019-01-26T19:04:54.960Z,5.80
2019-01-26T19:07:42.904Z,5.70
2019-01-26T19:10:30.888Z,5.70
2019-01-26T19:13:12.929Z,8.30
2019-01-26T19:16:00.853Z,5.70
2019-01-26T19:18:43.124Z,5.80
2019-01-26T19:21:11.858Z,5.70
2019-01-26T19:23:59.900Z,5.70
2019-01-26T19:26:41.132Z,5.70
2019-01-26T19:29:29.137Z,5.70
2019-01-26T19:32:10.934Z,5.70
2019-01-26T19:34:39.519Z,5.70
2019-01-26T19:37:27.480Z,5.70
2019-01-26T19:40:10.299Z,5.70
2019-01-26T19:42:58.372Z,5.70
2019-01-26T19:45:40.490Z,5.70
2019-01-26T19:48:28.502Z,5.70
2019-01-26T19:51:16.465Z,5.60
2019-01-26T19:53:58.414Z,5.60
2019-01-26T19:56:46.380Z,5.70
2019-01-26T19:59:15.088Z,5.70
2019-01-26T20:02:03.124Z,5.70
2019-01-26T20:04:31.873Z,5.60
2019-01-26T20:07:19.904Z,5.70
2019-01-26T20:10:01.110Z,5.70
2019-01-26T20:12:49.114Z,5.70
2019-01-26T20:15:30.437Z,5.70
2019-01-26T20:18:18.412Z,5.70
2019-01-26T20:21:00.310Z,5.80
2019-01-26T20:23:48.353Z,5.80
2019-01-26T20:26:30.568Z,5.80
2019-01-26T20:29:18.580Z,5.70
2019-01-26T20:32:00.728Z,5.70
2019-01-26T20:34:48.633Z,5.60
2019-01-26T20:37:36.672Z,5.60
2019-01-26T20:40:18.678Z,5.60
2019-01-26T20:43:06.709Z,5.60
2019-01-26T20:45:48.076Z,5.70
2019-01-26T20:48:36.085Z,5.60
2019-01-26T20:51:25.014Z,5.60
2019-01-26T20:54:07.321Z,5.70
2019-01-26T20:56:55.353Z,5.70
2019-01-26T20:59:36.929Z,5.70
2019-01-26T21:02:24.849Z,5.70
2019-01-26T21:05:08.726Z,5.70
2019-01-26T21:07:56.968Z,5.70
2019-01-26T21:10:38.132Z,5.70
2019-01-26T21:13:26.153Z,5.60
2019-01-26T21:15:54.940Z,5.60
2019-01-26T21:18:42.939Z,5.70
2019-01-26T21:21:24.774Z,5.70
2019-01-26T21:24:12.763Z,5.80
2019-01-26T21:26:54.683Z,5.70
2019-01-26T21:29:42.656Z,5.70
2019-01-26T21:32:24.002Z,5.70
2019-01-26T21:35:12.069Z,5.70
2019-01-26T21:38:00.007Z,5.80
2019-01-26T21:40:48.057Z,5.80
2019-01-26T21:43:29.564Z,5.90
2019-01-26T21:46:17.569Z,5.80
2019-01-26T21:49:03.605Z,5.80
2019-01-26T21:51:51.737Z,5.80
2019-01-26T21:54:33.729Z,5.70
2019-01-26T21:57:21.704Z,5.80
2019-01-26T22:00:04.997Z,5.90
2019-01-26T22:02:53.021Z,5.90
2019-01-26T22:05:35.123Z,5.80
2019-01-26T22:08:23.141Z,5.80
2019-01-26T22:11:05.062Z,5.80
2019-01-26T22:13:52.996Z,5.80
2019-01-26T22:16:34.861Z,5.90
2019-01-26T22:19:22.896Z,5.90
2019-01-26T22:22:04.940Z,5.90
2019-01-26T22:24:53.058Z,5.90
2019-01-26T22:27:35.093Z,5.90
2019-01-26T22:30:42.381Z,5.80
2019-01-26T22:33:25.016Z,5.90
2019-01-26T22:36:13.060Z,5.90
2019-01-26T22:38:54.908Z,5.90
2019-01-26T22:41:42.966Z,6.00
2019-01-26T22:44:24.617Z,5.90
2019-01-26T22:47:12.572Z,5.90
2019-01-26T22:49:54.561Z,5.80
2019-01-26T22:52:42.614Z,5.90
2019-01-26T22:55:24.803Z,5.90
2019-01-26T22:58:07.677Z,5.90
2019-01-26T23:01:09.756Z,5.90
2019-01-26T23:03:53.284Z,5.90
2019-01-26T23:07:00.621Z,5.90
2019-01-26T23:10:07.942Z,5.90
2019-01-26T23:12:51.413Z,6.00
2019-01-26T23:15:58.652Z,6.00
2019-01-26T23:18:59.996Z,6.00
2019-01-26T23:22:02.453Z,6.00
2019-01-26T23:25:09.782Z,6.00
2019-01-26T23:28:17.120Z,6.00
2019-01-26T23:31:24.435Z,6.00
2019-01-26T23:34:09.761Z,5.90
2019-01-26T23:36:38.520Z,6.00
2019-01-26T23:39:28.530Z,6.00
2019-01-26T23:42:16.552Z,6.00
2019-01-26T23:44:58.600Z,6.10
2019-01-26T23:47:46.723Z,6.00
2019-01-26T23:50:28.008Z,6.10
2019-01-26T23:53:09.117Z,6.10
2019-01-26T23:55:57.102Z,6.10
2019-01-26T23:58:25.690Z,6.00
